Time;durP1;ratioP1;P1;durP2;ratioP2;P2;SDS_P1;SDS_P2;PMS_P1;PMS_P2;Temp;Humidity;BMP_temperature;BMP_pressure;BME280_temperature;BME280_humidity;BME280_pressure;Samples;Min_cycle;Max_cycle;Signal;HPM_P1;HPM_P2
2021/03/12 00:02:07;;;;;;;11.82;2.20;;;;;;;3.63;100.00;97449.63;4940144;28;20529;-79
2021/03/12 00:04:34;;;;;;;12.77;2.35;;;;;;;3.48;100.00;97415.13;4953672;29;20050;-79
2021/03/12 00:07:01;;;;;;;14.35;2.30;;;;;;;3.50;100.00;97423.75;4953607;28;20043;-79
2021/03/12 00:09:28;;;;;;;9.30;1.83;;;;;;;3.57;100.00;97434.72;4953624;28;20054;-79
2021/03/12 00:11:55;;;;;;;11.73;1.77;;;;;;;3.60;100.00;97439.41;4953570;28;20059;-79
2021/03/12 00:14:21;;;;;;;11.02;2.03;;;;;;;3.61;100.00;97416.13;4952126;28;20470;-79
2021/03/12 00:16:48;;;;;;;16.15;2.20;;;;;;;3.54;100.00;97419.00;4952479;29;20051;-78
2021/03/12 00:19:15;;;;;;;14.27;2.13;;;;;;;3.67;100.00;97418.00;4952323;29;20063;-79
2021/03/12 00:21:42;;;;;;;11.43;1.77;;;;;;;3.61;100.00;97407.81;4952087;29;20054;-78
2021/03/12 00:24:09;;;;;;;8.18;1.63;;;;;;;3.64;100.00;97402.25;4953339;28;20040;-79
2021/03/12 00:26:36;;;;;;;9.77;1.92;;;;;;;3.68;100.00;97418.78;4952017;29;20050;-79
2021/03/12 00:29:04;;;;;;;11.38;2.33;;;;;;;3.67;100.00;97403.41;4953516;28;20414;-79
2021/03/12 00:31:31;;;;;;;17.33;2.83;;;;;;;3.62;100.00;97390.03;4953381;28;20057;-79
2021/03/12 00:34:00;;;;;;;16.95;3.13;;;;;;;3.67;100.00;97395.91;4953142;28;20113;-79
2021/03/12 00:36:27;;;;;;;16.33;2.05;;;;;;;3.72;100.00;97386.34;4965191;28;20039;-79
2021/03/12 00:38:54;;;;;;;19.02;1.92;;;;;;;3.72;100.00;97403.72;4942559;29;20035;-79
2021/03/12 00:41:20;;;;;;;14.43;2.30;;;;;;;3.78;100.00;97394.94;4951814;29;20047;-79
2021/03/12 00:43:56;;;;;;;17.38;1.92;;;;;;;3.81;100.00;97394.91;4951905;29;20043;-79
2021/03/12 00:46:31;;;;;;;10.38;2.00;;;;;;;3.82;100.00;97401.97;4951706;28;20047;-79
2021/03/12 00:48:58;;;;;;;18.02;2.30;;;;;;;3.90;100.00;97395.16;4952931;28;20059;-79
2021/03/12 00:51:28;;;;;;;12.48;2.03;;;;;;;3.84;100.00;97377.47;4951230;29;20132;-78
2021/03/12 00:54:04;;;;;;;12.98;2.60;;;;;;;3.77;100.00;97376.81;4935799;29;20067;-78
2021/03/12 00:56:31;;;;;;;13.07;2.15;;;;;;;3.85;100.00;97390.09;4952148;29;20051;-79
2021/03/12 00:59:02;;;;;;;15.57;2.25;;;;;;;3.85;100.00;97379.03;4936397;29;20035;-79
2021/03/12 01:01:34;;;;;;;11.73;2.20;;;;;;;3.92;100.00;97383.69;4951775;28;20520;-79
2021/03/12 01:04:01;;;;;;;17.52;2.33;;;;;;;3.87;100.00;97381.38;4951330;29;20040;-79
2021/03/12 01:06:28;;;;;;;18.58;2.35;;;;;;;3.84;100.00;97360.91;4951335;29;20050;-79
2021/03/12 01:08:59;;;;;;;14.18;2.33;;;;;;;3.88;100.00;97361.63;4936371;29;20044;-78
2021/03/12 01:11:31;;;;;;;11.88;2.30;;;;;;;3.92;100.00;97358.81;4951726;29;20121;-79
2021/03/12 01:13:59;;;;;;;22.17;2.45;;;;;;;3.89;100.00;97341.09;4951517;29;20046;-79
2021/03/12 01:16:32;;;;;;;13.20;2.22;;;;;;;3.95;100.00;97347.69;4939001;29;20044;-79
2021/03/12 01:19:02;;;;;;;16.80;2.47;;;;;;;3.91;100.00;97344.19;4951548;29;20045;-79
2021/03/12 01:21:32;;;;;;;15.35;3.00;;;;;;;3.99;100.00;97334.59;4935239;29;20162;-79
2021/03/12 01:24:01;;;;;;;14.63;2.90;;;;;;;3.96;100.00;97338.19;4935665;29;20356;-78
2021/03/12 01:26:33;;;;;;;12.05;2.00;;;;;;;3.99;100.00;97333.81;4951305;29;20039;-78
2021/03/12 01:29:08;;;;;;;12.18;2.10;;;;;;;4.08;100.00;97336.81;4952361;28;20054;-79
2021/03/12 01:31:59;;;;;;;17.33;2.28;;;;;;;3.99;100.00;97322.75;4938599;29;20038;-79
2021/03/12 01:34:30;;;;;;;14.07;3.25;;;;;;;3.95;100.00;97309.03;4937351;29;20031;-79
2021/03/12 01:36:58;;;;;;;16.17;2.03;;;;;;;4.04;100.00;97311.22;4951219;29;20043;-79
2021/03/12 01:39:30;;;;;;;12.13;2.75;;;;;;;4.02;100.00;97295.06;4951291;29;20049;-79
2021/03/12 01:41:59;;;;;;;11.57;2.00;;;;;;;3.94;100.00;97288.09;4945283;29;20077;-79
2021/03/12 01:44:32;;;;;;;19.52;2.45;;;;;;;4.00;100.00;97303.00;4948783;28;20046;-79
2021/03/12 01:46:59;;;;;;;12.32;2.25;;;;;;;4.02;100.00;97288.75;4948171;28;20513;-79
2021/03/12 01:49:26;;;;;;;10.32;1.70;;;;;;;4.05;100.00;97283.16;4950504;29;20044;-79
2021/03/12 01:51:54;;;;;;;9.50;2.08;;;;;;;4.10;100.00;97279.13;4952173;28;20055;-79
2021/03/12 01:54:21;;;;;;;9.73;2.22;;;;;;;4.03;100.00;97268.22;4934455;29;20043;-78
2021/03/12 01:56:58;;;;;;;10.70;1.98;;;;;;;4.13;100.00;97273.53;4944933;29;20057;-79
2021/03/12 01:59:41;;;;;;;9.38;2.30;;;;;;;4.09;100.00;97261.75;4950896;29;20126;-79
2021/03/12 02:02:20;;;;;;;12.65;2.25;;;;;;;4.09;100.00;97249.94;4950632;29;20046;-78
2021/03/12 02:04:54;;;;;;;13.15;2.28;;;;;;;4.00;100.00;97247.72;4950609;29;20459;-79
2021/03/12 02:07:20;;;;;;;15.88;2.55;;;;;;;4.06;100.00;97234.97;4950888;28;20050;-79
2021/03/12 02:10:02;;;;;;;9.95;1.60;;;;;;;4.07;100.00;97247.59;4966909;28;20130;-78
2021/03/12 02:13:00;;;;;;;12.57;2.08;;;;;;;4.01;100.00;97224.44;4949001;28;20043;-79
2021/03/12 02:15:39;;;;;;;12.82;2.40;;;;;;;4.19;100.00;97249.75;4932843;28;20064;-79
2021/03/12 02:18:48;;;;;;;14.50;1.63;;;;;;;4.21;100.00;97243.78;4950172;29;20043;-79
2021/03/12 02:21:40;;;;;;;14.68;2.25;;;;;;;4.11;100.00;97226.19;5029967;28;20089;-79
2021/03/12 02:24:19;;;;;;;14.45;2.53;;;;;;;4.10;100.00;97221.88;5026588;28;20037;-79
2021/03/12 02:26:46;;;;;;;11.63;2.08;;;;;;;4.24;100.00;97235.41;5029927;28;20053;-78
2021/03/12 02:29:22;;;;;;;11.27;2.03;;;;;;;4.08;100.00;97196.66;5010929;28;20049;-79
2021/03/12 02:31:54;;;;;;;11.52;2.03;;;;;;;4.10;100.00;97185.97;5029908;28;20053;-79
2021/03/12 02:34:25;;;;;;;11.68;1.85;;;;;;;4.08;100.00;97193.88;5010481;28;20033;-79
2021/03/12 02:37:00;;;;;;;12.20;2.22;;;;;;;3.96;100.00;97180.72;5036875;28;20118;-78
2021/03/12 02:39:31;;;;;;;12.90;2.38;;;;;;;4.00;100.00;97172.34;5049886;28;20123;-79
2021/03/12 02:42:01;;;;;;;13.00;2.50;;;;;;;3.98;100.00;97166.47;5019793;28;20409;-79
2021/03/12 02:44:34;;;;;;;12.05;1.90;;;;;;;3.91;100.00;97166.63;5017431;28;20045;-78
2021/03/12 02:47:14;;;;;;;11.48;1.90;;;;;;;3.91;100.00;97172.91;5017117;28;20040;-79
2021/03/12 02:49:42;;;;;;;12.48;1.63;;;;;;;3.91;100.00;97175.66;5033274;28;20052;-78
2021/03/12 02:52:10;;;;;;;6.25;1.65;;;;;;;3.77;100.00;97164.91;5029277;28;20064;-78
2021/03/12 02:54:38;;;;;;;12.13;2.22;;;;;;;3.86;100.00;97172.63;5033064;28;20140;-78
2021/03/12 02:57:06;;;;;;;14.40;2.00;;;;;;;3.83;100.00;97165.97;5002434;28;20066;-78
2021/03/12 02:59:34;;;;;;;5.65;1.92;;;;;;;3.78;100.00;97158.19;4953562;29;20165;-79
2021/03/12 03:02:01;;;;;;;11.63;1.67;;;;;;;3.89;100.00;97172.56;4954576;28;20092;-79
2021/03/12 03:04:40;;;;;;;7.65;1.40;;;;;;;3.85;100.00;97180.13;4937668;28;20036;-79
2021/03/12 03:07:16;;;;;;;10.93;1.55;;;;;;;3.76;100.00;97160.56;4953510;29;20513;-79
2021/03/12 03:09:44;;;;;;;;;;;;;;;3.89;100.00;97186.38;4953860;29;20471;-78
2021/03/12 03:12:19;;;;;;;11.60;1.65;;;;;;;3.75;100.00;97159.03;4937451;28;20037;-79
2021/03/12 03:14:50;;;;;;;11.95;2.08;;;;;;;3.88;100.00;97161.94;4953296;29;20039;-79
2021/03/12 03:17:19;;;;;;;12.73;2.45;;;;;;;3.79;100.00;97176.31;4962594;28;20044;-79
2021/03/12 03:19:49;;;;;;;12.27;2.10;;;;;;;3.83;100.00;97165.19;4953137;29;20047;-79
2021/03/12 03:22:18;;;;;;;18.55;2.28;;;;;;;3.72;100.00;97152.38;4953047;29;20494;-79
2021/03/12 03:24:45;;;;;;;11.48;2.05;;;;;;;3.71;100.00;97169.38;4952880;29;20367;-79
2021/03/12 03:27:13;;;;;;;16.65;2.33;;;;;;;3.67;100.00;97154.84;4953155;29;20504;-78
2021/03/12 03:29:43;;;;;;;13.80;2.25;;;;;;;3.65;100.00;97148.94;4952749;29;20031;-79
2021/03/12 03:32:14;;;;;;;16.08;2.42;;;;;;;3.71;100.00;97158.31;4952696;29;20043;-79
2021/03/12 03:34:42;;;;;;;14.85;2.10;;;;;;;3.68;100.00;97150.88;4952999;29;20581;-79
2021/03/12 03:37:10;;;;;;;14.65;2.35;;;;;;;3.63;100.00;97149.38;4953102;29;20043;-79
2021/03/12 03:39:39;;;;;;;19.05;3.50;;;;;;;3.73;100.00;97161.41;4953042;29;20051;-79
2021/03/12 03:42:07;;;;;;;;;;;;;;;3.85;100.00;97174.59;4953191;29;20043;-79
2021/03/12 03:44:35;;;;;;;18.60;2.80;;;;;;;3.73;100.00;97161.41;4953566;28;20013;-79
2021/03/12 03:47:07;;;;;;;20.90;3.25;;;;;;;3.78;100.00;97152.66;4951100;29;20043;-79
2021/03/12 03:49:40;;;;;;;15.63;1.92;;;;;;;3.86;100.00;97158.81;4952673;29;20039;-79
2021/03/12 03:52:09;;;;;;;20.85;3.38;;;;;;;3.85;100.00;97146.22;4952445;29;20418;-79
2021/03/12 03:54:47;;;;;;;16.27;2.50;;;;;;;3.86;100.00;97136.72;4952874;29;20043;-78
2021/03/12 03:57:18;;;;;;;25.00;3.50;;;;;;;3.84;100.00;97139.91;4968726;28;20043;-79
2021/03/12 03:59:46;;;;;;;15.45;2.47;;;;;;;3.94;100.00;97154.72;4953375;28;20487;-79
2021/03/12 04:02:16;;;;;;;16.23;2.92;;;;;;;3.84;100.00;97137.13;4952673;29;20495;-79
2021/03/12 04:04:46;;;;;;;19.52;3.05;;;;;;;3.83;100.00;97130.06;4953515;28;20059;-79
2021/03/12 04:07:14;;;;;;;15.02;2.70;;;;;;;3.87;100.00;97141.81;4952623;29;20047;-79
2021/03/12 04:09:42;;;;;;;18.70;2.90;;;;;;;3.89;100.00;97146.91;4952052;29;20340;-79
2021/03/12 04:12:13;;;;;;;16.38;2.47;;;;;;;3.90;100.00;97143.72;4952367;29;20039;-79
2021/03/12 04:14:43;;;;;;;13.85;2.33;;;;;;;3.82;100.00;97141.53;4938604;28;20491;-79
2021/03/12 04:17:10;;;;;;;13.57;2.13;;;;;;;3.92;100.00;97146.84;4952290;28;20043;-79
2021/03/12 04:19:39;;;;;;;16.80;3.30;;;;;;;3.94;100.00;97141.66;4952275;29;20051;-78
2021/03/12 04:22:08;;;;;;;12.13;2.15;;;;;;;3.90;100.00;97137.41;4955590;28;20640;-79
2021/03/12 04:24:37;;;;;;;;;;;;;;;3.99;100.00;97151.44;4943710;29;20047;-78
2021/03/12 04:27:08;;;;;;;7.05;1.38;;;;;;;3.91;100.00;97142.50;4951684;29;20408;-78
2021/03/12 04:29:35;;;;;;;9.05;2.47;;;;;;;3.80;100.00;97119.88;4951410;29;20050;-78
2021/03/12 04:32:03;;;;;;;20.05;2.13;;;;;;;3.81;100.00;97129.69;4951897;29;20050;-79
2021/03/12 04:34:30;;;;;;;10.35;1.95;;;;;;;3.91;100.00;97145.28;4951725;28;20563;-78
2021/03/12 04:36:58;;;;;;;14.50;2.30;;;;;;;3.83;100.00;97124.53;4951887;28;20066;-79
2021/03/12 04:39:24;;;;;;;13.48;1.70;;;;;;;3.89;100.00;97133.88;4952270;29;20054;-78
2021/03/12 04:41:52;;;;;;;10.07;1.90;;;;;;;3.90;100.00;97121.63;4951808;28;20472;-79
2021/03/12 04:44:24;;;;;;;10.48;2.42;;;;;;;3.94;100.00;97136.13;4964353;28;20040;-79
2021/03/12 04:46:51;;;;;;;13.75;2.28;;;;;;;3.98;100.00;97125.03;4951125;28;20505;-78
2021/03/12 04:49:19;;;;;;;12.35;2.17;;;;;;;3.91;100.00;97106.59;4953158;28;20411;-78
2021/03/12 04:51:46;;;;;;;10.23;2.00;;;;;;;3.92;100.00;97112.91;4951603;29;20047;-79
2021/03/12 04:54:16;;;;;;;;;;;;;;;3.98;100.00;97122.25;4968369;28;20066;-78
2021/03/12 04:56:44;;;;;;;6.63;1.92;;;;;;;3.87;100.00;97094.06;4951991;29;19922;-79
2021/03/12 04:59:12;;;;;;;10.20;1.70;;;;;;;3.88;100.00;97090.13;4952764;28;20126;-79
2021/03/12 05:01:43;;;;;;;11.23;1.70;;;;;;;3.92;100.00;97090.81;4951705;29;20046;-79
2021/03/12 05:04:12;;;;;;;10.80;1.80;;;;;;;4.01;100.00;97099.28;4951430;29;20440;-78
2021/03/12 05:06:43;;;;;;;10.88;1.60;;;;;;;4.01;100.00;97080.75;4952982;28;20045;-79
2021/03/12 05:09:30;;;;;;;11.05;1.80;;;;;;;3.87;100.00;97066.44;4951493;28;20054;-79
2021/03/12 05:11:58;;;;;;;9.18;1.95;;;;;;;3.92;100.00;97091.59;4951328;29;20058;-78
2021/03/12 05:14:29;;;;;;;9.68;2.00;;;;;;;3.94;100.00;97088.41;4951319;29;20059;-79
2021/03/12 05:16:56;;;;;;;14.85;1.95;;;;;;;3.98;100.00;97084.38;4952778;28;20040;-79
2021/03/12 05:19:24;;;;;;;9.18;1.85;;;;;;;3.94;100.00;97083.63;4951439;29;20047;-78
2021/03/12 05:21:56;;;;;;;11.07;2.03;;;;;;;4.06;100.00;97091.28;4950286;29;20069;-78
2021/03/12 05:24:24;;;;;;;12.37;2.20;;;;;;;3.98;100.00;97087.13;4951224;29;20043;-78
2021/03/12 05:26:52;;;;;;;8.55;1.95;;;;;;;3.99;100.00;97096.97;4952524;28;20587;-78
2021/03/12 05:29:23;;;;;;;13.63;2.00;;;;;;;4.09;100.00;97104.22;4951260;29;20050;-78
2021/03/12 05:31:56;;;;;;;8.93;1.70;;;;;;;3.96;100.00;97085.97;4938594;29;20560;-79
2021/03/12 05:34:23;;;;;;;9.20;1.88;;;;;;;3.94;100.00;97110.50;4951250;29;20036;-78
2021/03/12 05:36:51;;;;;;;8.48;2.00;;;;;;;4.06;100.00;97112.63;4951290;29;20047;-78
2021/03/12 05:39:20;;;;;;;5.43;1.60;;;;;;;3.89;100.00;97083.38;4951036;29;20050;-78
2021/03/12 05:41:48;;;;;;;12.43;2.10;;;;;;;3.85;100.00;97075.16;4950759;29;20039;-78
2021/03/12 05:44:18;;;;;;;12.57;1.88;;;;;;;3.82;100.00;97081.53;4950867;29;20043;-79
2021/03/12 05:46:46;;;;;;;10.77;2.30;;;;;;;3.98;100.00;97089.88;4951003;28;20047;-78
2021/03/12 05:49:15;;;;;;;12.90;1.77;;;;;;;3.96;100.00;97084.00;4951088;29;20042;-78
2021/03/12 05:51:44;;;;;;;10.57;1.80;;;;;;;3.97;100.00;97074.50;4951087;29;20380;-79
2021/03/12 05:54:11;;;;;;;6.70;1.70;;;;;;;4.05;100.00;97073.16;4950884;29;20390;-78
2021/03/12 05:56:41;;;;;;;11.43;1.70;;;;;;;4.06;100.00;97068.41;4950591;28;20056;-78
2021/03/12 05:59:08;;;;;;;15.93;3.22;;;;;;;4.04;100.00;97071.59;4950693;29;20050;-79
2021/03/12 06:01:39;;;;;;;13.20;2.47;;;;;;;4.05;100.00;97051.03;4950734;28;20055;-78
2021/03/12 06:04:06;;;;;;;13.52;2.25;;;;;;;4.08;100.00;97061.22;4950667;29;20039;-78
2021/03/12 06:06:35;;;;;;;17.45;2.75;;;;;;;3.97;100.00;97038.56;4950557;28;20043;-78
2021/03/12 06:09:04;;;;;;;13.02;2.40;;;;;;;3.98;100.00;97034.63;4950614;29;20188;-78
2021/03/12 06:11:32;;;;;;;12.98;2.10;;;;;;;3.97;100.00;97043.34;4951803;28;20491;-78
2021/03/12 06:13:59;;;;;;;15.10;2.85;;;;;;;4.10;100.00;97058.84;4951734;29;20490;-78
2021/03/12 06:16:48;;;;;;;14.25;2.63;;;;;;;4.10;100.00;97058.84;4931545;29;20377;-78
2021/03/12 06:19:21;;;;;;;8.10;2.10;;;;;;;4.00;100.00;97073.63;4932566;29;20151;-78
2021/03/12 06:22:11;;;;;;;10.75;1.90;;;;;;;3.84;100.00;97068.09;4931302;29;20047;-78
2021/03/12 06:24:46;;;;;;;4.53;1.65;;;;;;;3.70;100.00;97054.56;4935733;28;20498;-78
2021/03/12 06:27:30;;;;;;;5.07;1.60;;;;;;;3.72;100.00;97065.97;4951521;28;20035;-79
2021/03/12 06:30:21;;;;;;;12.45;1.85;;;;;;;3.56;100.00;97047.34;4938328;29;20047;-78
2021/03/12 06:33:27;;;;;;;8.75;1.67;;;;;;;3.65;100.00;97066.09;4950120;29;20382;-79
2021/03/12 06:36:06;;;;;;;7.32;1.20;;;;;;;3.54;100.00;97071.06;4953840;28;20031;-79
2021/03/12 06:38:39;;;;;;;2.05;0.90;;;;;;;3.31;100.00;97071.13;4947005;28;20390;-79
2021/03/12 06:41:34;;;;;;;3.15;1.10;;;;;;;3.21;100.00;97064.59;4949774;29;20621;-79
2021/03/12 06:44:24;;;;;;;3.40;1.10;;;;;;;3.13;100.00;97076.19;4947353;29;20039;-79
2021/03/12 06:46:51;;;;;;;4.32;1.02;;;;;;;3.07;100.00;97067.63;4949596;29;20038;-78
2021/03/12 06:49:18;;;;;;;3.08;1.40;;;;;;;3.08;100.00;97071.16;4934054;29;20039;-79
2021/03/12 06:52:04;;;;;;;5.28;1.58;;;;;;;3.02;100.00;97070.09;4947008;29;20407;-79
2021/03/12 06:54:36;;;;;;;4.10;1.50;;;;;;;3.16;100.00;97065.09;4966815;28;20403;-79
2021/03/12 06:57:20;;;;;;;3.28;1.00;;;;;;;3.08;100.00;97062.88;4946619;28;20039;-79
2021/03/12 06:59:58;;;;;;;;;;;;;;;3.21;100.00;97080.41;4962441;28;20142;-79
2021/03/12 07:02:33;;;;;;;5.63;0.90;;;;;;;3.11;100.00;97073.88;4950998;28;19922;-79
2021/03/12 07:05:06;;;;;;;5.55;1.00;;;;;;;3.21;100.00;97072.88;4961717;28;20481;-78
2021/03/12 07:07:51;;;;;;;3.10;0.80;;;;;;;3.24;100.00;97079.56;4964838;28;20035;-78
2021/03/12 07:10:45;;;;;;;2.92;1.20;;;;;;;3.37;100.00;97089.53;4958104;28;20055;-79
2021/03/12 07:13:25;;;;;;;6.53;1.08;;;;;;;3.29;100.00;97076.28;4979916;28;20039;-79
2021/03/12 07:16:00;;;;;;;2.55;0.68;;;;;;;3.50;100.00;97092.44;4952401;28;20039;-80
2021/03/12 07:18:35;;;;;;;1.73;0.80;;;;;;;3.45;100.00;97084.66;4962197;28;20116;-79
2021/03/12 07:21:07;;;;;;;4.40;1.15;;;;;;;3.46;100.00;97075.16;4964373;28;20192;-79
2021/03/12 07:23:41;;;;;;;2.75;1.13;;;;;;;3.44;100.00;97063.75;4931934;28;20402;-79
2021/03/12 07:26:16;;;;;;;3.38;1.05;;;;;;;3.53;100.00;97075.03;4963774;28;20039;-79
2021/03/12 07:28:53;;;;;;;5.13;1.50;;;;;;;3.44;100.00;97063.75;4957780;28;20047;-79
2021/03/12 07:31:41;;;;;;;3.90;1.35;;;;;;;3.39;100.00;97042.19;4962482;28;20049;-79
2021/03/12 07:34:15;;;;;;;3.83;1.40;;;;;;;3.66;100.00;97078.72;4964347;28;20035;-79
2021/03/12 07:36:47;;;;;;;4.30;1.42;;;;;;;3.57;100.00;97065.47;4963703;28;20085;-79
2021/03/12 07:39:22;;;;;;;4.35;1.63;;;;;;;3.61;100.00;97076.44;4965718;28;20512;-79
2021/03/12 07:41:52;;;;;;;3.72;1.35;;;;;;;3.45;100.00;97079.91;4966080;28;20470;-79
2021/03/12 07:44:45;;;;;;;5.10;1.15;;;;;;;3.44;100.00;97077.56;4968839;28;20045;-79
2021/03/12 07:47:44;;;;;;;6.97;1.65;;;;;;;3.40;100.00;97087.91;4952250;28;20054;-80
2021/03/12 07:50:35;;;;;;;2.83;1.10;;;;;;;3.36;100.00;97065.13;4971175;28;20046;-79
2021/03/12 07:53:07;;;;;;;5.55;1.35;;;;;;;3.40;100.00;97074.09;4970909;28;20055;-79
2021/03/12 07:55:45;;;;;;;3.63;1.42;;;;;;;3.50;100.00;97082.19;4969402;28;20038;-79
2021/03/12 07:58:55;;;;;;;3.65;1.27;;;;;;;3.35;100.00;97063.53;4971690;28;20047;-79
2021/03/12 08:01:57;;;;;;;4.15;2.08;;;;;;;3.26;100.00;97069.63;4949392;28;20126;-79
2021/03/12 08:04:46;;;;;;;2.50;1.50;;;;;;;3.46;100.00;97108.31;4972001;28;20092;-79
2021/03/12 08:07:24;;;;;;;2.55;1.30;;;;;;;3.48;100.00;97097.63;4955308;28;20482;-79
2021/03/12 08:09:54;;;;;;;4.78;1.30;;;;;;;3.21;100.00;97077.63;4971468;28;20050;-79
2021/03/12 08:12:39;;;;;;;3.95;1.70;;;;;;;3.19;100.00;97093.81;4970779;28;20073;-79
2021/03/12 08:15:30;;;;;;;3.97;1.30;;;;;;;3.10;100.00;97091.63;4965073;28;20051;-79
2021/03/12 08:18:07;;;;;;;1.58;1.27;;;;;;;3.08;100.00;97126.34;4971040;28;20465;-79
2021/03/12 08:20:41;;;;;;;7.60;1.27;;;;;;;2.84;100.00;97117.28;4970557;28;20039;-79
2021/03/12 08:23:34;;;;;;;2.08;1.10;;;;;;;2.61;100.00;97105.44;4970113;28;20035;-79
2021/03/12 08:26:59;;;;;;;2.37;1.07;;;;;;;2.71;100.00;97137.63;4970654;28;20079;-79
2021/03/12 08:29:59;;;;;;;1.27;1.10;;;;;;;2.52;100.00;97133.56;4969515;28;20118;-80
2021/03/12 08:32:44;;;;;;;1.77;0.80;;;;;;;2.58;100.00;97136.63;4969185;28;20046;-79
2021/03/12 08:35:35;;;;;;;2.45;0.80;;;;;;;2.48;100.00;97154.09;4986934;28;20151;-79
2021/03/12 08:38:37;;;;;;;1.00;0.70;;;;;;;2.10;100.00;97133.38;4999780;28;20726;-81
2021/03/12 08:41:40;;;;;;;0.50;0.50;;;;;;;1.86;100.00;97158.06;5002316;28;20171;-80
2021/03/12 08:44:40;;;;;;;0.50;0.50;;;;;;;1.70;100.00;97154.34;5000411;28;20078;-82
2021/03/12 08:47:24;;;;;;;0.40;0.40;;;;;;;1.46;100.00;97136.91;5008438;28;20042;-80
2021/03/12 08:49:55;;;;;;;0.70;0.50;;;;;;;1.53;100.00;97123.06;5007042;28;20061;-79
2021/03/12 08:52:28;;;;;;;1.90;0.68;;;;;;;1.68;100.00;97138.22;4985499;28;20636;-79
2021/03/12 08:55:06;;;;;;;0.50;0.50;;;;;;;1.73;100.00;97131.47;4984221;28;20045;-79
2021/03/12 08:57:33;;;;;;;0.60;0.50;;;;;;;1.65;100.00;97130.78;5005671;28;20052;-79
2021/03/12 09:00:15;;;;;;;1.40;0.60;;;;;;;1.89;100.00;97157.25;4989081;28;20053;-79
2021/03/12 09:03:22;;;;;;;0.50;0.50;;;;;;;2.03;100.00;97161.78;5004375;28;20038;-80
2021/03/12 09:06:16;;;;;;;0.60;0.60;;;;;;;2.03;100.00;97158.28;4988185;28;20093;-81
2021/03/12 09:09:00;;;;;;;0.90;0.90;;;;;;;2.07;100.00;97145.22;5005592;28;20042;-81
2021/03/12 09:11:54;;;;;;;2.47;2.20;;;;;;;2.03;100.00;97133.47;5004738;28;20057;-80
2021/03/12 09:14:23;;;;;;;1.30;1.17;;;;;;;2.37;100.00;97172.75;4996809;28;20066;-80
2021/03/12 09:16:59;;;;;;;0.82;0.65;;;;;;;2.40;100.00;97175.47;4964928;28;20326;-80
2021/03/12 09:19:29;;;;;;;1.45;0.60;;;;;;;2.32;100.00;97173.25;4917800;28;20165;-80
2021/03/12 09:22:02;;;;;;;0.77;0.70;;;;;;;2.17;100.00;97167.13;4955793;28;20043;-79
2021/03/12 09:24:51;;;;;;;0.82;0.82;;;;;;;2.30;100.00;97168.16;4958157;28;20043;-80
2021/03/12 09:27:19;;;;;;;1.08;0.98;;;;;;;2.44;100.00;97175.44;4948115;28;20051;-84
2021/03/12 09:30:23;;;;;;;2.00;1.60;;;;;;;2.52;100.00;97165.84;4935638;28;20045;-82
2021/03/12 09:32:54;;;;;;;1.95;1.77;;;;;;;2.65;100.00;97184.16;4944839;28;20043;-83
2021/03/12 09:35:25;;;;;;;2.17;1.83;;;;;;;2.67;100.00;97178.22;4965417;28;20035;-82
2021/03/12 09:37:57;;;;;;;2.00;1.83;;;;;;;2.70;100.00;97160.84;4949983;28;20043;-82
2021/03/12 09:40:39;;;;;;;2.47;2.20;;;;;;;2.88;100.00;97172.38;4964877;28;20050;-80
2021/03/12 09:43:13;;;;;;;2.78;2.10;;;;;;;3.41;100.00;97169.50;4964886;28;20519;-82
2021/03/12 09:45:49;;;;;;;3.13;1.90;;;;;;;3.76;100.00;97188.19;4962176;28;20043;-84
2021/03/12 09:48:31;;;;;;;2.70;1.50;;;;;;;3.87;100.00;97188.78;4962413;28;20039;-83
2021/03/12 09:51:03;;;;;;;6.07;1.92;;;;;;;3.86;100.00;97167.91;4949321;28;20096;-82
2021/03/12 09:53:33;;;;;;;2.80;1.85;;;;;;;4.00;100.00;97173.13;4935495;29;20193;-90
2021/03/12 09:56:12;;;;;;;2.67;2.13;;;;;;;4.00;100.00;97158.53;4940031;29;20054;-93
2021/03/12 09:59:14;;;;;;;6.38;2.40;;;;;;;4.49;100.00;97194.22;4938215;28;20043;-90
2021/03/12 10:01:45;;;;;;;4.25;2.45;;;;;;;4.55;100.00;97181.44;4954734;28;20074;-93
2021/03/12 10:04:36;;;;;;;5.97;1.95;;;;;;;4.40;100.00;97176.63;4983732;28;20175;-89
2021/03/12 10:07:19;;;;;;;;;;;;;;;4.42;100.00;97177.78;4943257;28;20143;-90
2021/03/12 10:09:49;;;;;;;6.68;2.30;;;;;;;4.32;100.00;97170.47;4915346;28;19972;-88
2021/03/12 10:12:31;;;;;;;3.85;1.95;;;;;;;4.29;100.00;97160.28;4946876;28;20046;-89
2021/03/12 10:15:13;;;;;;;5.13;2.53;;;;;;;4.32;100.00;97164.16;4966697;28;20035;-88
2021/03/12 10:17:48;;;;;;;7.78;2.92;;;;;;;4.36;100.00;97149.03;4951033;28;20133;-88
2021/03/12 10:20:26;;;;;;;6.40;2.47;;;;;;;4.35;100.00;97141.19;4949949;28;20039;-90
2021/03/12 10:22:57;;;;;;;5.65;2.30;;;;;;;4.44;100.00;97122.03;4957562;28;20050;-92
2021/03/12 10:25:30;;;;;;;4.15;1.88;;;;;;;4.46;100.00;97128.69;4935520;28;20053;-83
2021/03/12 10:28:07;;;;;;;4.88;2.40;;;;;;;4.50;100.00;97126.63;4964139;28;20043;-86
2021/03/12 10:30:56;;;;;;;5.60;2.30;;;;;;;4.34;100.00;97123.84;4952143;28;20142;-90
2021/03/12 10:33:25;;;;;;;5.60;1.73;;;;;;;4.47;100.00;97155.13;4942135;28;20038;-84
2021/03/12 10:35:54;;;;;;;4.65;1.95;;;;;;;4.44;100.00;97127.56;4971846;28;20497;-88
2021/03/12 10:38:35;;;;;;;8.85;2.03;;;;;;;4.59;100.00;97118.50;4968098;28;20046;-87
2021/03/12 10:41:19;;;;;;;6.78;1.50;;;;;;;4.60;100.00;97106.25;4938595;28;20043;-88
2021/03/12 10:43:57;;;;;;;7.43;1.92;;;;;;;4.65;100.00;97111.25;4938511;28;20043;-89
2021/03/12 10:46:23;;;;;;;8.98;1.80;;;;;;;4.82;100.00;97115.59;4961476;28;20129;-90
2021/03/12 10:48:52;;;;;;;5.75;1.60;;;;;;;4.94;100.00;97098.28;4953421;28;20126;-90
2021/03/12 10:51:20;;;;;;;4.07;1.85;;;;;;;4.91;100.00;97079.78;4969351;28;20051;-90
2021/03/12 10:53:48;;;;;;;11.93;2.20;;;;;;;4.98;100.00;97074.06;4937228;28;20375;-89
2021/03/12 10:56:16;;;;;;;5.35;1.90;;;;;;;5.12;100.00;97089.53;4918505;29;20695;-89
2021/03/12 10:58:43;;;;;;;5.50;1.83;;;;;;;5.23;100.00;97079.75;4951488;28;20108;-90
2021/03/12 11:01:14;;;;;;;7.68;2.00;;;;;;;5.29;100.00;97078.00;4936899;28;20066;-88
2021/03/12 11:03:43;;;;;;;6.57;2.75;;;;;;;5.23;100.00;97062.34;4921314;28;20138;-87
2021/03/12 11:06:11;;;;;;;14.55;9.38;;;;;;;5.49;100.00;97064.00;4988190;28;20042;-80
2021/03/12 11:08:39;;;;;;;12.82;9.50;;;;;;;5.94;100.00;97055.66;4960729;28;20131;-89
2021/03/12 11:11:09;;;;;;;6.25;1.73;;;;;;;5.96;100.00;97037.34;4921042;28;20039;-89
2021/03/12 11:13:37;;;;;;;10.27;2.63;;;;;;;5.84;100.00;97057.50;4958575;28;20482;-82
2021/03/12 11:16:06;;;;;;;5.10;1.50;;;;;;;5.85;100.00;97049.94;4968379;28;20069;-89
2021/03/12 11:18:33;;;;;;;4.60;1.73;;;;;;;5.65;100.00;97027.19;4953621;28;20043;-90
2021/03/12 11:21:04;;;;;;;5.43;1.58;;;;;;;5.56;100.00;97031.34;4940539;28;20055;-90
2021/03/12 11:23:31;;;;;;;10.15;1.30;;;;;;;5.52;100.00;97019.63;4940468;28;20039;-91
2021/03/12 11:25:57;;;;;;;5.25;1.25;;;;;;;5.48;100.00;97021.69;4972913;28;20096;-91
2021/03/12 11:28:28;;;;;;;6.18;1.20;;;;;;;5.42;100.00;96992.22;4956475;28;20047;-91
2021/03/12 11:30:55;;;;;;;5.70;1.13;;;;;;;5.37;100.00;97006.59;4928311;28;20381;-90
2021/03/12 11:33:23;;;;;;;7.30;1.25;;;;;;;5.29;100.00;97014.31;4955515;28;20047;-90
2021/03/12 11:35:52;;;;;;;5.05;1.65;;;;;;;5.54;100.00;97000.53;4947887;28;20128;-90
2021/03/12 11:38:19;;;;;;;5.72;1.38;;;;;;;5.74;100.00;97002.38;4987323;28;20046;-90
2021/03/12 11:40:46;;;;;;;10.38;1.42;;;;;;;5.83;100.00;96994.22;4972256;28;20045;-89
2021/03/12 11:43:13;;;;;;;4.25;1.40;;;;;;;5.96;100.00;96986.69;4972438;28;20509;-92
2021/03/12 11:45:40;;;;;;;6.25;1.00;;;;;;;6.33;100.00;96997.00;4939708;28;20039;-90
2021/03/12 11:48:09;;;;;;;5.47;1.35;;;;;;;6.23;100.00;96993.34;4939670;28;20054;-89
2021/03/12 11:50:37;;;;;;;4.03;1.30;;;;;;;6.32;100.00;96987.09;4953599;28;20034;-90
2021/03/12 11:53:05;;;;;;;4.82;1.20;;;;;;;6.38;100.00;96957.59;4939438;28;20055;-87
2021/03/12 11:55:33;;;;;;;4.00;1.75;;;;;;;6.61;100.00;96996.06;4971283;28;20087;-88
2021/03/12 11:58:00;;;;;;;7.80;3.72;;;;;;;6.66;100.00;96971.31;5039049;28;20498;-89
2021/03/12 12:00:30;;;;;;;6.10;2.60;;;;;;;6.63;100.00;96958.34;4971084;28;20042;-88
2021/03/12 12:02:57;;;;;;;8.57;2.72;;;;;;;6.80;100.00;96978.41;4953447;28;20050;-88
2021/03/12 12:05:24;;;;;;;6.47;1.90;;;;;;;6.76;100.00;96977.72;4971283;28;20550;-83